Time;durP1;ratioP1;P1;durP2;ratioP2;P2;SDS_P1;SDS_P2;PMS_P1;PMS_P2;Temp;Humidity;BMP_temperature;BMP_pressure;BME280_temperature;BME280_humidity;BME280_pressure;Samples;Min_cycle;Max_cycle;Signal;HPM_P1;HPM_P2
2022/10/23 00:00:02;;;;;;;49.80;8.80;;;;;;;;;;1035886;28;20021;-77
2022/10/23 00:00:33;;;;;;;57.10;9.32;;;;;;;;;;1035961;28;20553;-77
2022/10/23 00:01:14;;;;;;;36.17;8.32;;;;;;;;;;1036140;28;20124;-77
2022/10/23 00:01:45;;;;;;;45.03;6.07;;;;;;;;;;1036351;28;20055;-77
2022/10/23 00:02:15;;;;;;;35.30;9.75;;;;;;;;;;1036029;28;20032;-77
2022/10/23 00:02:53;;;;;;;60.65;8.70;;;;;;;;;;1036373;28;20482;-77
2022/10/23 00:03:23;;;;;;;42.25;8.23;;;;;;;;;;1033214;28;20080;-77
2022/10/23 00:04:05;;;;;;;39.67;7.10;;;;;;;;;;1036168;28;20088;-77
2022/10/23 00:04:35;;;;;;;49.30;7.43;;;;;;;;;;1035097;28;20034;-77
2022/10/23 00:05:06;;;;;;;54.70;11.57;;;;;;;;;;1035775;28;20065;-77
2022/10/23 00:05:39;;;;;;;44.70;8.20;;;;;;;;;;1035688;28;20064;-77
2022/10/23 00:06:10;;;;;;;42.10;7.70;;;;;;;;;;1035719;28;20030;-77
2022/10/23 00:06:41;;;;;;;59.90;9.40;;;;;;;;;;1035164;28;20049;-77
2022/10/23 00:07:12;;;;;;;46.88;11.80;;;;;;;;;;1036219;28;20506;-77
2022/10/23 00:07:43;;;;;;;40.33;7.95;;;;;;;;;;1032316;28;20061;-77
2022/10/23 00:08:13;;;;;;;52.70;8.55;;;;;;;;;;1036232;28;20040;-77
2022/10/23 00:08:45;;;;;;;47.78;9.65;;;;;;;;;;1036088;28;20025;-77
2022/10/23 00:09:17;;;;;;;53.08;6.90;;;;;;;;;;1034212;28;20030;-77
2022/10/23 00:09:47;;;;;;;57.42;11.55;;;;;;;;;;1036461;28;20026;-77
2022/10/23 00:10:18;;;;;;;35.00;6.10;;;;;;;;;;1036455;28;20366;-77
2022/10/23 00:10:49;;;;;;;71.97;8.80;;;;;;;;;;1036424;28;20398;-77
2022/10/23 00:11:21;;;;;;;43.55;5.65;;;;;;;;;;1036361;28;20117;-77
2022/10/23 00:11:52;;;;;;;30.55;6.00;;;;;;;;;;1036048;28;20100;-77
2022/10/23 00:12:22;;;;;;;55.55;8.70;;;;;;;;;;1036225;28;20026;-77
2022/10/23 00:12:53;;;;;;;41.30;7.75;;;;;;;;;;1036154;28;20025;-77
2022/10/23 00:13:23;;;;;;;41.97;7.57;;;;;;;;;;1035900;28;20030;-77
2022/10/23 00:13:55;;;;;;;47.08;8.38;;;;;;;;;;1036128;28;20068;-77
2022/10/23 00:14:26;;;;;;;54.83;7.93;;;;;;;;;;1031961;28;20029;-77
2022/10/23 00:14:56;;;;;;;52.13;6.75;;;;;;;;;;1032371;28;20027;-77
2022/10/23 00:15:27;;;;;;;34.55;8.18;;;;;;;;;;1036016;28;20567;-77
2022/10/23 00:15:57;;;;;;;30.67;6.72;;;;;;;;;;1036301;28;20034;-77
2022/10/23 00:16:28;;;;;;;53.25;8.85;;;;;;;;;;1040013;28;20048;-77
2022/10/23 00:16:59;;;;;;;47.38;7.60;;;;;;;;;;1032534;28;20023;-77
2022/10/23 00:17:31;;;;;;;47.83;8.32;;;;;;;;;;1032138;28;20062;-77
2022/10/23 00:18:02;;;;;;;34.35;7.72;;;;;;;;;;1032138;28;20026;-77
2022/10/23 00:18:33;;;;;;;26.85;6.57;;;;;;;;;;1031868;28;20522;-77
2022/10/23 00:19:04;;;;;;;52.08;7.75;;;;;;;;;;1031973;28;20040;-77
2022/10/23 00:19:34;;;;;;;34.20;6.82;;;;;;;;;;1031963;28;20033;-77
2022/10/23 00:20:05;;;;;;;45.90;7.55;;;;;;;;;;1032243;28;20061;-77
2022/10/23 00:20:36;;;;;;;52.90;6.22;;;;;;;;;;1032004;28;20026;-77
2022/10/23 00:21:08;;;;;;;48.65;7.18;;;;;;;;;;1032009;28;20035;-77
2022/10/23 00:21:39;;;;;;;25.92;4.90;;;;;;;;;;1032392;28;20425;-77
2022/10/23 00:22:10;;;;;;;50.03;6.30;;;;;;;;;;1032525;28;20135;-77
2022/10/23 00:22:40;;;;;;;38.20;6.32;;;;;;;;;;1031948;28;20437;-77
2022/10/23 00:23:11;;;;;;;38.85;7.25;;;;;;;;;;1032047;28;20031;-78
2022/10/23 00:23:41;;;;;;;66.88;9.13;;;;;;;;;;1031881;28;20613;-77
2022/10/23 00:24:12;;;;;;;53.55;7.13;;;;;;;;;;1032387;28;20492;-77
2022/10/23 00:24:43;;;;;;;38.85;7.63;;;;;;;;;;1032139;28;20110;-77
2022/10/23 00:25:15;;;;;;;51.83;8.63;;;;;;;;;;1031920;28;20038;-78
2022/10/23 00:25:45;;;;;;;30.33;6.72;;;;;;;;;;1032415;28;20053;-77
2022/10/23 00:26:16;;;;;;;40.92;6.03;;;;;;;;;;1032361;28;20486;-77
2022/10/23 00:26:48;;;;;;;36.13;6.82;;;;;;;;;;1032457;28;20041;-77
2022/10/23 00:27:19;;;;;;;41.00;6.68;;;;;;;;;;1031803;28;20022;-78
2022/10/23 00:27:49;;;;;;;41.08;8.10;;;;;;;;;;1032223;28;20061;-78
2022/10/23 00:28:20;;;;;;;34.40;5.25;;;;;;;;;;1031911;28;20056;-77
2022/10/23 00:28:51;;;;;;;29.60;5.47;;;;;;;;;;1032027;28;20425;-77
2022/10/23 00:29:22;;;;;;;29.98;5.60;;;;;;;;;;1031889;28;20030;-77
2022/10/23 00:29:52;;;;;;;62.75;9.73;;;;;;;;;;1032086;28;20034;-77
2022/10/23 00:30:23;;;;;;;40.97;6.72;;;;;;;;;;1028293;28;20146;-77
2022/10/23 00:30:53;;;;;;;48.65;7.97;;;;;;;;;;1032036;28;20035;-77
2022/10/23 00:31:24;;;;;;;49.13;8.70;;;;;;;;;;1031961;28;20019;-77
2022/10/23 00:31:55;;;;;;;54.67;7.80;;;;;;;;;;1032170;28;20080;-77
2022/10/23 00:32:26;;;;;;;54.60;8.40;;;;;;;;;;1031641;28;20482;-77
2022/10/23 00:32:56;;;;;;;51.50;7.97;;;;;;;;;;1031498;28;20489;-77
2022/10/23 00:33:27;;;;;;;41.67;8.18;;;;;;;;;;1031895;28;20472;-77
2022/10/23 00:33:57;;;;;;;41.50;6.63;;;;;;;;;;1033870;28;20397;-77
2022/10/23 00:34:28;;;;;;;43.13;6.32;;;;;;;;;;1036068;28;20037;-77
2022/10/23 00:34:58;;;;;;;61.85;7.07;;;;;;;;;;1036125;28;20544;-77
2022/10/23 00:35:29;;;;;;;57.08;6.45;;;;;;;;;;1035741;28;20465;-78
2022/10/23 00:35:59;;;;;;;50.72;7.47;;;;;;;;;;1036289;28;20030;-77
2022/10/23 00:36:30;;;;;;;31.27;6.65;;;;;;;;;;1035957;28;20120;-78
2022/10/23 00:37:01;;;;;;;44.53;9.30;;;;;;;;;;1036348;28;20033;-78
2022/10/23 00:37:31;;;;;;;54.25;8.80;;;;;;;;;;1035816;28;20052;-77
2022/10/23 00:38:02;;;;;;;31.05;5.65;;;;;;;;;;1036264;28;20040;-77
2022/10/23 00:38:32;;;;;;;36.45;5.00;;;;;;;;;;1036017;28;20084;-77
2022/10/23 00:39:03;;;;;;;38.55;6.68;;;;;;;;;;1036401;28;20497;-77
2022/10/23 00:39:34;;;;;;;32.05;5.78;;;;;;;;;;1036218;28;20052;-77
2022/10/23 00:40:05;;;;;;;34.97;5.93;;;;;;;;;;1035707;28;20128;-77
2022/10/23 00:40:36;;;;;;;31.30;7.10;;;;;;;;;;1032214;28;20045;-77
2022/10/23 00:41:07;;;;;;;53.13;7.88;;;;;;;;;;1032242;28;20537;-77
2022/10/23 00:41:38;;;;;;;49.72;6.18;;;;;;;;;;1032278;28;20146;-77
2022/10/23 00:42:14;;;;;;;41.50;5.85;;;;;;;;;;1031947;28;20234;-77
2022/10/23 00:42:45;;;;;;;30.02;5.35;;;;;;;;;;1027965;28;20514;-77
2022/10/23 00:43:17;;;;;;;53.38;8.18;;;;;;;;;;1027854;28;20034;-77
2022/10/23 00:43:59;;;;;;;33.83;4.65;;;;;;;;;;1029149;28;20031;-77
2022/10/23 00:44:30;;;;;;;33.47;4.97;;;;;;;;;;1031971;28;20026;-77
2022/10/23 00:45:15;;;;;;;26.08;4.82;;;;;;;;;;1032084;28;20482;-77
2022/10/23 00:45:46;;;;;;;41.15;7.68;;;;;;;;;;1031986;28;20037;-77
2022/10/23 00:46:16;;;;;;;36.35;4.85;;;;;;;;;;1031858;28;20029;-77
2022/10/23 00:46:47;;;;;;;23.77;5.60;;;;;;;;;;1032230;28;20026;-77
2022/10/23 00:47:18;;;;;;;25.52;5.30;;;;;;;;;;1032027;28;20498;-77
2022/10/23 00:47:49;;;;;;;42.42;5.68;;;;;;;;;;1031972;28;20030;-77
2022/10/23 00:48:19;;;;;;;33.75;7.13;;;;;;;;;;1031810;28;20026;-77
2022/10/23 00:48:50;;;;;;;25.85;6.28;;;;;;;;;;1031958;28;20561;-77
2022/10/23 00:49:21;;;;;;;41.10;7.30;;;;;;;;;;1031997;28;20558;-77
2022/10/23 00:49:52;;;;;;;23.42;4.82;;;;;;;;;;1032087;28;20033;-77
2022/10/23 00:50:24;;;;;;;45.13;6.15;;;;;;;;;;1031895;28;20041;-77
2022/10/23 00:50:55;;;;;;;34.15;5.38;;;;;;;;;;1032036;28;20031;-77
2022/10/23 00:51:28;;;;;;;27.52;6.45;;;;;;;;;;1031817;28;20023;-77
2022/10/23 00:52:00;;;;;;;36.75;7.93;;;;;;;;;;1032370;28;20031;-77
2022/10/23 00:52:32;;;;;;;27.08;6.82;;;;;;;;;;1031695;28;20037;-77
2022/10/23 00:53:03;;;;;;;32.45;7.90;;;;;;;;;;1031899;28;20065;-77
2022/10/23 00:53:34;;;;;;;50.60;7.63;;;;;;;;;;1031759;28;20145;-77
2022/10/23 00:54:05;;;;;;;47.22;6.75;;;;;;;;;;1031956;28;20030;-77
2022/10/23 00:54:38;;;;;;;29.00;5.93;;;;;;;;;;1031891;28;20037;-77
2022/10/23 00:55:09;;;;;;;30.05;5.70;;;;;;;;;;1031816;28;20081;-77
2022/10/23 00:55:44;;;;;;;27.70;5.38;;;;;;;;;;1031970;28;20034;-77
2022/10/23 00:56:15;;;;;;;23.77;5.53;;;;;;;;;;1032197;28;20034;-77
2022/10/23 00:56:45;;;;;;;32.60;6.55;;;;;;;;;;1032351;28;20026;-77
2022/10/23 00:57:16;;;;;;;27.63;5.53;;;;;;;;;;1031679;28;20474;-77
2022/10/23 00:57:47;;;;;;;33.85;3.92;;;;;;;;;;1033889;28;20028;-77
2022/10/23 00:58:19;;;;;;;31.90;4.72;;;;;;;;;;1031756;28;20466;-77
2022/10/23 00:58:49;;;;;;;41.60;3.78;;;;;;;;;;1032060;28;20022;-77
2022/10/23 00:59:20;;;;;;;33.50;6.15;;;;;;;;;;1031575;28;20101;-78
2022/10/23 00:59:50;;;;;;;24.90;4.55;;;;;;;;;;1031849;28;20026;-77
2022/10/23 01:00:24;;;;;;;45.38;5.60;;;;;;;;;;1032139;28;20038;-77
2022/10/23 01:00:55;;;;;;;30.17;6.13;;;;;;;;;;1035935;28;20470;-77
2022/10/23 01:01:25;;;;;;;25.05;3.78;;;;;;;;;;1035733;28;20030;-77
2022/10/23 01:01:56;;;;;;;23.13;4.43;;;;;;;;;;1035618;28;20061;-77
2022/10/23 01:02:27;;;;;;;30.30;4.97;;;;;;;;;;1031757;28;20429;-77
2022/10/23 01:02:58;;;;;;;18.45;4.43;;;;;;;;;;1032269;28;20041;-77
2022/10/23 01:03:28;;;;;;;24.23;4.70;;;;;;;;;;1035721;28;20033;-77
2022/10/23 01:04:00;;;;;;;19.55;5.43;;;;;;;;;;1036092;28;20033;-77
2022/10/23 01:04:32;;;;;;;31.25;6.15;;;;;;;;;;1036092;28;20029;-77
2022/10/23 01:05:02;;;;;;;44.50;5.88;;;;;;;;;;1035998;28;20037;-77
2022/10/23 01:05:53;;;;;;;31.20;5.35;;;;;;;;;;1035749;28;20505;-77
2022/10/23 01:06:24;;;;;;;31.95;3.60;;;;;;;;;;1019251;28;20032;-77
2022/10/23 01:07:13;;;;;;;37.33;5.55;;;;;;;;;;1036177;28;20022;-77
2022/10/23 01:08:03;;;;;;;28.08;6.10;;;;;;;;;;1036269;28;20184;-77
2022/10/23 01:08:38;;;;;;;26.15;4.70;;;;;;;;;;1035040;28;20029;-77
2022/10/23 01:09:12;;;;;;;19.88;5.05;;;;;;;;;;1035926;28;20154;-77
2022/10/23 01:10:01;;;;;;;22.88;6.57;;;;;;;;;;1035919;28;20022;-77
2022/10/23 01:10:35;;;;;;;23.75;5.45;;;;;;;;;;1036077;28;20057;-77
2022/10/23 01:11:16;;;;;;;30.15;5.45;;;;;;;;;;1036113;28;20033;-78
2022/10/23 01:11:47;;;;;;;26.45;5.63;;;;;;;;;;1036243;28;20028;-77
2022/10/23 01:12:17;;;;;;;21.83;4.50;;;;;;;;;;1036220;28;20048;-77
2022/10/23 01:13:06;;;;;;;24.33;5.15;;;;;;;;;;1036301;28;20124;-77
2022/10/23 01:13:36;;;;;;;16.38;3.60;;;;;;;;;;1035745;28;20545;-77
2022/10/23 01:14:14;;;;;;;22.98;3.83;;;;;;;;;;1035918;28;20029;-78
2022/10/23 01:14:54;;;;;;;23.45;4.53;;;;;;;;;;1035841;28;20017;-76
2022/10/23 01:15:31;;;;;;;24.67;6.85;;;;;;;;;;1035743;28;20026;-77
2022/10/23 01:16:10;;;;;;;19.33;4.68;;;;;;;;;;1036014;28;20026;-77
2022/10/23 01:16:50;;;;;;;26.85;5.32;;;;;;;;;;1035898;28;20029;-77
2022/10/23 01:17:32;;;;;;;20.17;6.45;;;;;;;;;;1035034;28;20058;-78
2022/10/23 01:18:02;;;;;;;21.50;5.43;;;;;;;;;;1036167;28;20060;-77
2022/10/23 01:18:53;;;;;;;25.85;4.50;;;;;;;;;;1035758;28;20021;-77
2022/10/23 01:19:29;;;;;;;22.30;4.03;;;;;;;;;;1025738;28;20046;-77
2022/10/23 01:20:10;;;;;;;13.73;3.70;;;;;;;;;;1035996;28;20128;-77
2022/10/23 01:20:43;;;;;;;16.52;2.70;;;;;;;;;;1035819;28;20032;-77
2022/10/23 01:21:17;;;;;;;28.48;4.95;;;;;;;;;;1035649;28;20584;-77
2022/10/23 01:21:48;;;;;;;16.35;3.83;;;;;;;;;;1035407;28;20022;-78
2022/10/23 01:22:41;;;;;;;17.70;3.72;;;;;;;;;;1035842;28;20072;-77
2022/10/23 01:23:21;;;;;;;24.63;6.07;;;;;;;;;;1023994;28;20059;-77
2022/10/23 01:24:10;;;;;;;28.77;4.90;;;;;;;;;;1032153;28;20104;-77
2022/10/23 01:25:02;;;;;;;24.83;4.65;;;;;;;;;;1035823;28;20064;-77
2022/10/23 01:25:38;;;;;;;16.98;5.43;;;;;;;;;;1035993;28;20030;-77
2022/10/23 01:26:27;;;;;;;21.63;3.70;;;;;;;;;;1036065;28;20030;-77
2022/10/23 01:26:58;;;;;;;22.70;3.38;;;;;;;;;;1036303;28;20036;-77
2022/10/23 01:27:38;;;;;;;16.90;3.58;;;;;;;;;;1035963;28;20037;-77
2022/10/23 01:28:11;;;;;;;17.77;4.60;;;;;;;;;;1036215;28;20030;-77
2022/10/23 01:28:44;;;;;;;14.30;4.10;;;;;;;;;;1035739;28;20540;-77
2022/10/23 01:29:21;;;;;;;12.95;3.47;;;;;;;;;;1035835;28;20390;-77
2022/10/23 01:29:58;;;;;;;22.35;6.85;;;;;;;;;;1035941;28;20108;-77
2022/10/23 01:30:29;;;;;;;22.60;5.00;;;;;;;;;;1036016;28;20613;-77
2022/10/23 01:31:01;;;;;;;30.38;5.68;;;;;;;;;;1035898;28;20080;-78
2022/10/23 01:31:51;;;;;;;30.30;4.25;;;;;;;;;;1035594;28;20040;-77
2022/10/23 01:32:26;;;;;;;33.00;5.20;;;;;;;;;;1022388;28;20082;-77
2022/10/23 01:33:09;;;;;;;16.42;4.47;;;;;;;;;;1036213;28;20389;-77
2022/10/23 01:33:52;;;;;;;18.73;3.95;;;;;;;;;;1033740;28;20553;-77
2022/10/23 01:34:31;;;;;;;29.02;5.05;;;;;;;;;;1032188;28;20018;-77
2022/10/23 01:35:04;;;;;;;12.82;3.05;;;;;;;;;;1032225;28;20026;-77
2022/10/23 01:35:37;;;;;;;15.02;3.83;;;;;;;;;;1031582;28;20030;-77
2022/10/23 01:36:12;;;;;;;16.63;3.70;;;;;;;;;;1031766;28;20034;-77
2022/10/23 01:36:45;;;;;;;18.45;3.33;;;;;;;;;;1031810;28;20034;-77
2022/10/23 01:37:20;;;;;;;13.73;3.10;;;;;;;;;;1035511;28;20021;-77
2022/10/23 01:37:54;;;;;;;13.30;4.18;;;;;;;;;;1035895;28;20030;-77
2022/10/23 01:38:27;;;;;;;23.52;4.07;;;;;;;;;;1035849;28;20513;-77
2022/10/23 01:39:01;;;;;;;9.13;3.65;;;;;;;;;;1029804;28;20113;-77
2022/10/23 01:39:35;;;;;;;20.17;3.28;;;;;;;;;;1031532;28;20114;-77
2022/10/23 01:40:10;;;;;;;14.23;5.60;;;;;;;;;;1032945;28;20022;-77
2022/10/23 01:40:47;;;;;;;17.88;4.20;;;;;;;;;;1035939;28;20399;-77
2022/10/23 01:41:36;;;;;;;18.75;5.72;;;;;;;;;;1035658;28;20026;-77
2022/10/23 01:42:09;;;;;;;22.08;4.43;;;;;;;;;;1035978;28;20014;-77
2022/10/23 01:42:43;;;;;;;14.90;2.45;;;;;;;;;;1035869;28;20498;-77
2022/10/23 01:43:19;;;;;;;14.70;4.85;;;;;;;;;;1035567;28;20489;-77
2022/10/23 01:43:55;;;;;;;16.27;4.78;;;;;;;;;;1035458;28;20033;-77
2022/10/23 01:44:29;;;;;;;12.60;2.95;;;;;;;;;;1031717;28;20026;-77
2022/10/23 01:45:04;;;;;;;16.75;3.10;;;;;;;;;;1030910;28;20561;-77
2022/10/23 01:45:38;;;;;;;11.68;1.95;;;;;;;;;;1029173;28;20031;-77
2022/10/23 01:46:11;;;;;;;20.98;5.00;;;;;;;;;;1033115;28;20121;-77
2022/10/23 01:46:42;;;;;;;8.90;5.05;;;;;;;;;;1035821;28;20124;-77
2022/10/23 01:47:14;;;;;;;19.55;3.47;;;;;;;;;;1035668;28;20026;-77
2022/10/23 01:47:46;;;;;;;15.38;3.75;;;;;;;;;;1035807;28;20022;-77
2022/10/23 01:48:19;;;;;;;16.20;3.28;;;;;;;;;;1035922;28;20017;-77
2022/10/23 01:48:54;;;;;;;11.88;3.50;;;;;;;;;;1035993;28;20114;-77
2022/10/23 01:49:24;;;;;;;14.43;4.50;;;;;;;;;;1035962;28;20022;-77
2022/10/23 01:49:55;;;;;;;16.90;4.47;;;;;;;;;;1035851;28;20030;-77
2022/10/23 01:50:27;;;;;;;17.65;3.25;;;;;;;;;;1035753;28;20426;-77
2022/10/23 01:51:00;;;;;;;11.88;2.42;;;;;;;;;;1035704;28;20030;-77
2022/10/23 01:51:32;;;;;;;14.45;3.72;;;;;;;;;;1035501;28;20030;-77
2022/10/23 01:52:05;;;;;;;14.52;4.45;;;;;;;;;;1036260;28;20021;-77
2022/10/23 01:52:36;;;;;;;18.80;3.65;;;;;;;;;;1036045;28;20536;-77
2022/10/23 01:53:06;;;;;;;33.05;5.40;;;;;;;;;;1039730;28;20017;-77
2022/10/23 01:53:40;;;;;;;32.05;4.45;;;;;;;;;;1039865;28;20025;-77
2022/10/23 01:54:12;;;;;;;22.35;3.58;;;;;;;;;;1039874;28;20091;-77
2022/10/23 01:54:44;;;;;;;23.65;5.65;;;;;;;;;;1038980;28;20646;-78
2022/10/23 01:55:15;;;;;;;18.48;4.00;;;;;;;;;;1035624;28;20100;-77
2022/10/23 01:55:46;;;;;;;20.50;4.90;;;;;;;;;;1032373;28;20529;-77
2022/10/23 01:56:20;;;;;;;23.38;3.55;;;;;;;;;;1031593;28;20081;-77
2022/10/23 01:56:51;;;;;;;12.45;2.47;;;;;;;;;;1032037;28;20053;-77
2022/10/23 01:57:24;;;;;;;24.38;4.72;;;;;;;;;;1031469;28;20080;-77
2022/10/23 01:57:55;;;;;;;20.52;4.60;;;;;;;;;;1031910;28;20025;-77
2022/10/23 01:58:27;;;;;;;22.92;5.10;;;;;;;;;;1027540;28;20052;-77
2022/10/23 01:59:00;;;;;;;12.30;4.10;;;;;;;;;;1031324;28;20029;-77
2022/10/23 01:59:34;;;;;;;15.00;3.10;;;;;;;;;;1035536;28;20099;-77
2022/10/23 02:00:07;;;;;;;15.23;3.78;;;;;;;;;;1034540;28;20554;-77
2022/10/23 02:00:38;;;;;;;26.42;3.67;;;;;;;;;;1035107;28;20029;-77
2022/10/23 02:01:10;;;;;;;25.92;3.72;;;;;;;;;;1031854;28;20066;-77
2022/10/23 02:01:43;;;;;;;18.83;3.88;;;;;;;;;;1032044;28;20120;-77
2022/10/23 02:02:14;;;;;;;18.98;2.92;;;;;;;;;;1031717;28;20030;-77
2022/10/23 02:02:47;;;;;;;18.15;3.65;;;;;;;;;;1031782;28;20035;-77
2022/10/23 02:03:18;;;;;;;16.38;4.30;;;;;;;;;;1033453;28;20088;-77
2022/10/23 02:03:49;;;;;;;29.23;4.13;;;;;;;;;;1035786;28;20058;-77
2022/10/23 02:04:26;;;;;;;27.40;5.10;;;;;;;;;;1033888;28;20084;-77
2022/10/23 02:05:02;;;;;;;11.25;3.10;;;;;;;;;;1031779;28;20490;-77
2022/10/23 02:05:33;;;;;;;21.95;3.22;;;;;;;;;;1031411;28;20042;-77
2022/10/23 02:06:04;;;;;;;20.50;3.90;;;;;;;;;;1031837;28;20054;-77
2022/10/23 02:06:35;;;;;;;16.98;4.35;;;;;;;;;;1031467;28;20449;-77
2022/10/23 02:07:05;;;;;;;24.02;3.28;;;;;;;;;;1031672;28;20438;-78
2022/10/23 02:07:36;;;;;;;18.10;3.95;;;;;;;;;;1031961;28;20026;-77
2022/10/23 02:08:07;;;;;;;30.02;6.47;;;;;;;;;;1032120;28;20470;-77
2022/10/23 02:08:37;;;;;;;14.32;3.67;;;;;;;;;;1031580;28;20620;-77
2022/10/23 02:09:08;;;;;;;20.50;3.58;;;;;;;;;;1031749;28;20022;-77
2022/10/23 02:09:38;;;;;;;25.83;4.18;;;;;;;;;;1031619;28;20153;-77
2022/10/23 02:10:09;;;;;;;37.63;5.80;;;;;;;;;;1031581;28;20403;-77
2022/10/23 02:11:00;;;;;;;26.65;3.45;;;;;;;;;;1031527;28;20426;-77
2022/10/23 02:11:34;;;;;;;11.65;3.53;;;;;;;;;;1030896;28;20493;-78
2022/10/23 02:12:08;;;;;;;16.85;4.75;;;;;;;;;;1031679;28;20157;-77
2022/10/23 02:12:38;;;;;;;13.40;3.03;;;;;;;;;;1031669;28;20409;-77
2022/10/23 02:13:12;;;;;;;6.00;2.47;;;;;;;;;;1031679;28;20026;-77
2022/10/23 02:14:03;;;;;;;17.90;4.82;;;;;;;;;;1028561;28;20043;-77
2022/10/23 02:14:39;;;;;;;17.40;2.55;;;;;;;;;;1031112;28;20030;-77
2022/10/23 02:15:23;;;;;;;18.88;3.53;;;;;;;;;;1031615;28;20030;-77
2022/10/23 02:16:16;;;;;;;17.80;3.00;;;;;;;;;;1031476;28;20495;-77
2022/10/23 02:16:54;;;;;;;13.40;4.68;;;;;;;;;;1027847;28;20120;-78
2022/10/23 02:17:39;;;;;;;10.70;2.38;;;;;;;;;;1035662;28;20398;-77
2022/10/23 02:18:17;;;;;;;28.00;3.67;;;;;;;;;;1036034;28;20041;-77
2022/10/23 02:19:04;;;;;;;8.95;2.60;;;;;;;;;;1036035;28;20072;-77
2022/10/23 02:19:44;;;;;;;12.02;2.72;;;;;;;;;;1035946;28;20057;-77
2022/10/23 02:20:18;;;;;;;7.72;3.63;;;;;;;;;;1035617;28;20083;-77
2022/10/23 02:20:57;;;;;;;15.70;4.22;;;;;;;;;;1035566;28;20026;-77
2022/10/23 02:21:36;;;;;;;10.27;1.98;;;;;;;;;;1035515;28;20041;-77
2022/10/23 02:22:10;;;;;;;6.20;1.90;;;;;;;;;;1035723;28;20389;-77
2022/10/23 02:22:45;;;;;;;13.88;2.85;;;;;;;;;;1036006;28;20486;-77
2022/10/23 02:23:18;;;;;;;15.73;3.03;;;;;;;;;;1035875;28;20026;-78
2022/10/23 02:24:15;;;;;;;13.68;1.73;;;;;;;;;;1036049;28;20489;-77
2022/10/23 02:24:59;;;;;;;20.00;3.55;;;;;;;;;;1032147;28;20085;-77
2022/10/23 02:25:37;;;;;;;20.52;3.40;;;;;;;;;;1035516;28;20084;-77
2022/10/23 02:26:10;;;;;;;8.38;2.47;;;;;;;;;;1035643;28;20429;-77
2022/10/23 02:26:42;;;;;;;9.77;2.97;;;;;;;;;;1034855;28;20074;-78
2022/10/23 02:27:15;;;;;;;10.38;1.98;;;;;;;;;;1035482;28;20394;-78
2022/10/23 02:27:49;;;;;;;14.25;1.58;;;;;;;;;;1035636;28;20589;-77
2022/10/23 02:28:23;;;;;;;9.50;1.70;;;;;;;;;;1035640;28;20026;-77
2022/10/23 02:29:03;;;;;;;12.45;2.75;;;;;;;;;;1035769;28;20033;-77
2022/10/23 02:29:37;;;;;;;10.80;2.38;;;;;;;;;;1033845;28;20486;-78
2022/10/23 02:30:09;;;;;;;13.95;3.30;;;;;;;;;;1035684;28;20417;-77
2022/10/23 02:30:41;;;;;;;4.00;2.17;;;;;;;;;;1035701;28;20441;-78
2022/10/23 02:31:13;;;;;;;21.85;1.80;;;;;;;;;;1032335;28;20081;-77
2022/10/23 02:31:44;;;;;;;13.45;3.50;;;;;;;;;;1035733;28;20022;-77
2022/10/23 02:32:16;;;;;;;9.10;1.85;;;;;;;;;;1035754;28;20032;-77
2022/10/23 02:32:49;;;;;;;15.23;2.63;;;;;;;;;;1035767;28;20079;-77
2022/10/23 02:33:20;;;;;;;21.25;4.07;;;;;;;;;;1035844;28;20033;-77
2022/10/23 02:33:51;;;;;;;9.77;2.50;;;;;;;;;;1035510;28;20030;-77
2022/10/23 02:34:22;;;;;;;21.33;3.30;;;;;;;;;;1031540;28;20034;-77
2022/10/23 02:34:53;;;;;;;20.15;4.55;;;;;;;;;;1031723;28;20022;-77
2022/10/23 02:35:23;;;;;;;16.17;2.97;;;;;;;;;;1031601;28;20501;-77
2022/10/23 02:35:54;;;;;;;16.02;4.28;;;;;;;;;;1035500;28;20017;-77
2022/10/23 02:36:25;;;;;;;7.07;2.72;;;;;;;;;;1031946;28;20026;-77
2022/10/23 02:36:55;;;;;;;7.68;2.72;;;;;;;;;;1035719;28;20033;-77
2022/10/23 02:37:26;;;;;;;10.82;3.45;;;;;;;;;;1035473;28;20410;-77
2022/10/23 02:37:58;;;;;;;11.98;3.22;;;;;;;;;;1035783;28;20113;-77
2022/10/23 02:38:32;;;;;;;22.98;4.28;;;;;;;;;;1035621;28;20037;-77
2022/10/23 02:39:04;;;;;;;13.65;4.72;;;;;;;;;;1036639;28;20033;-77
2022/10/23 02:39:34;;;;;;;12.30;3.08;;;;;;;;;;1039647;28;20033;-77
2022/10/23 02:40:06;;;;;;;9.70;2.20;;;;;;;;;;1039066;28;20029;-77
2022/10/23 02:40:39;;;;;;;8.20;3.25;;;;;;;;;;1035276;28;20358;-77
2022/10/23 02:41:16;;;;;;;12.48;3.15;;;;;;;;;;1031816;28;20452;-77
2022/10/23 02:41:55;;;;;;;8.05;1.90;;;;;;;;;;1032008;28;20471;-77
2022/10/23 02:42:32;;;;;;;10.43;2.33;;;;;;;;;;1031955;28;20026;-77
2022/10/23 02:43:09;;;;;;;8.85;2.60;;;;;;;;;;1032070;28;20121;-77
2022/10/23 02:43:46;;;;;;;5.70;3.05;;;;;;;;;;1031518;28;20033;-77
2022/10/23 02:44:24;;;;;;;8.45;2.38;;;;;;;;;;1031634;28;20430;-77
2022/10/23 02:45:07;;;;;;;9.88;3.28;;;;;;;;;;1031568;28;20081;-78
2022/10/23 02:45:38;;;;;;;6.22;2.95;;;;;;;;;;1031488;28;20026;-77
2022/10/23 02:46:22;;;;;;;9.55;2.10;;;;;;;;;;1031467;28;20505;-77
2022/10/23 02:46:52;;;;;;;20.05;3.33;;;;;;;;;;1031638;28;20612;-77
2022/10/23 02:47:29;;;;;;;15.88;3.13;;;;;;;;;;1033396;28;20080;-77
2022/10/23 02:48:11;;;;;;;7.15;2.33;;;;;;;;;;1033301;28;20117;-77
2022/10/23 02:48:52;;;;;;;15.57;2.75;;;;;;;;;;1032076;28;20030;-77
2022/10/23 02:49:36;;;;;;;8.82;3.08;;;;;;;;;;1031753;28;20033;-77
2022/10/23 02:50:26;;;;;;;10.85;3.00;;;;;;;;;;1032034;28;20033;-77
2022/10/23 02:51:00;;;;;;;8.98;4.55;;;;;;;;;;1031950;28;20394;-77
2022/10/23 02:51:56;;;;;;;19.58;5.65;;;;;;;;;;1031587;28;20493;-77
2022/10/23 02:52:30;;;;;;;5.10;1.77;;;;;;;;;;1023343;29;20035;-77
2022/10/23 02:53:06;;;;;;;10.73;2.95;;;;;;;;;;1023031;28;20059;-77
2022/10/23 02:53:55;;;;;;;11.00;2.53;;;;;;;;;;1031529;28;20437;-77
2022/10/23 02:54:41;;;;;;;6.53;2.55;;;;;;;;;;1031446;28;20015;-77
2022/10/23 02:55:30;;;;;;;9.73;2.67;;;;;;;;;;1035621;28;20040;-77
2022/10/23 02:56:27;;;;;;;5.57;2.20;;;;;;;;;;1035558;28;20017;-77
2022/10/23 02:56:57;;;;;;;24.52;2.60;;;;;;;;;;1028032;28;20061;-77
2022/10/23 02:57:50;;;;;;;7.82;3.17;;;;;;;;;;1032104;28;20018;-77
2022/10/23 02:58:23;;;;;;;13.00;3.17;;;;;;;;;;1033308;28;20026;-77
2022/10/23 02:59:06;;;;;;;10.35;2.92;;;;;;;;;;1036510;28;20037;-77
2022/10/23 02:59:41;;;;;;;16.42;3.92;;;;;;;;;;1040488;28;20072;-77
2022/10/23 03:00:14;;;;;;;10.65;3.50;;;;;;;;;;1038010;28;20165;-78
2022/10/23 03:00:48;;;;;;;15.52;5.30;;;;;;;;;;1033913;28;20563;-78
2022/10/23 03:01:21;;;;;;;12.80;3.58;;;;;;;;;;1032110;28;20109;-78
2022/10/23 03:02:12;;;;;;;14.00;3.97;;;;;;;;;;1032391;28;20029;-77
2022/10/23 03:02:42;;;;;;;13.82;2.88;;;;;;;;;;1018999;28;20048;-77
2022/10/23 03:03:25;;;;;;;9.40;2.25;;;;;;;;;;1032520;28;20152;-77
2022/10/23 03:03:58;;;;;;;17.77;4.28;;;;;;;;;;1032741;28;20371;-78
2022/10/23 03:04:30;;;;;;;8.70;2.78;;;;;;;;;;1032522;28;20605;-78
2022/10/23 03:05:02;;;;;;;23.60;3.38;;;;;;;;;;1033138;28;20041;-78
2022/10/23 03:05:34;;;;;;;16.92;2.20;;;;;;;;;;1031989;28;20117;-78
2022/10/23 03:06:05;;;;;;;16.50;4.68;;;;;;;;;;1032646;28;20151;-78
2022/10/23 03:06:36;;;;;;;24.92;4.00;;;;;;;;;;1032240;28;20142;-79
2022/10/23 03:07:09;;;;;;;12.85;2.78;;;;;;;;;;1032361;28;20517;-79
2022/10/23 03:07:40;;;;;;;22.40;3.53;;;;;;;;;;1032867;28;20026;-79
2022/10/23 03:08:12;;;;;;;15.02;3.85;;;;;;;;;;1032708;28;20057;-79
2022/10/23 03:08:51;;;;;;;19.02;4.13;;;;;;;;;;1032266;28;20030;-78
2022/10/23 03:09:26;;;;;;;14.77;2.60;;;;;;;;;;1032321;28;20030;-78
2022/10/23 03:09:56;;;;;;;17.55;3.67;;;;;;;;;;1032335;28;20026;-76
2022/10/23 03:10:27;;;;;;;24.13;4.70;;;;;;;;;;1033957;28;20558;-79
2022/10/23 03:10:57;;;;;;;31.00;4.32;;;;;;;;;;1036344;28;20060;-78
2022/10/23 03:11:28;;;;;;;14.38;4.20;;;;;;;;;;1036170;28;20026;-78
2022/10/23 03:11:59;;;;;;;19.65;3.83;;;;;;;;;;1032426;28;20080;-79
2022/10/23 03:12:29;;;;;;;15.18;3.78;;;;;;;;;;1028166;28;20497;-78
2022/10/23 03:13:00;;;;;;;17.27;3.38;;;;;;;;;;1032812;28;20030;-78
2022/10/23 03:13:31;;;;;;;10.50;2.70;;;;;;;;;;1032201;28;20120;-79
2022/10/23 03:14:01;;;;;;;14.10;2.83;;;;;;;;;;1036368;28;20513;-78
2022/10/23 03:14:32;;;;;;;12.25;3.15;;;;;;;;;;1032362;28;20026;-78
2022/10/23 03:15:03;;;;;;;13.98;3.60;;;;;;;;;;1032392;28;20397;-78
2022/10/23 03:15:33;;;;;;;17.27;4.15;;;;;;;;;;1032158;28;20438;-78
2022/10/23 03:16:04;;;;;;;22.52;3.88;;;;;;;;;;1033823;28;20172;-78
2022/10/23 03:16:34;;;;;;;9.95;2.75;;;;;;;;;;1036212;28;20553;-79
2022/10/23 03:17:05;;;;;;;20.13;3.97;;;;;;;;;;1032484;28;20026;-78
2022/10/23 03:17:35;;;;;;;14.70;3.97;;;;;;;;;;1036323;28;20076;-78
2022/10/23 03:18:06;;;;;;;14.82;3.42;;;;;;;;;;1036341;28;20512;-78
2022/10/23 03:18:37;;;;;;;11.63;3.35;;;;;;;;;;1036404;28;20395;-78
2022/10/23 03:19:07;;;;;;;12.77;2.72;;;;;;;;;;1036280;28;20061;-78
2022/10/23 03:19:38;;;;;;;16.38;3.03;;;;;;;;;;1032352;28;20113;-78
2022/10/23 03:20:09;;;;;;;6.97;1.80;;;;;;;;;;1032435;28;20137;-78
2022/10/23 03:20:39;;;;;;;14.50;2.28;;;;;;;;;;1032184;28;20074;-78
2022/10/23 03:21:10;;;;;;;8.70;2.83;;;;;;;;;;1028401;28;20527;-79
2022/10/23 03:21:40;;;;;;;5.47;3.22;;;;;;;;;;1028348;28;20027;-79